KBFM/BFM METAR and TAF weather

Enter ICAO airport designator
Station Type Date Time Source
KBFM METAR 2022/01/23 11:53 UTC NOAA

KBFM 231153Z 30005KT 10SM CLR M03/M07 A3027 RMK AO2 SLP251 T10281067 11006 21033 55003


Station Type Date Time Source
KBFM Decoded METAR 2022/01/23 11:53 UTC NOAA

MOBILE DOWNTOWN AIRPORT, AL, United States (KBFM) 30-38N 88-04W 20M
Jan 23, 2022 - 06:53 AM EST / 2022.01.23 1153 UTC
Wind: from the WNW (300 degrees) at 6 MPH (5 KT):0
Visibility: 10 mile(s):0
Sky conditions: clear
Temperature: 27.0 F (-2.8 C)
Windchill: 19 F (-7 C):1
Dew Point: 19.9 F (-6.7 C)
Relative Humidity: 74%
Pressure (altimeter): 30.27 in. Hg (1025 hPa)
Pressure tendency: 0.01 inches (0.3 hPa) lower than three hours ago
ob: KBFM 231153Z 30005KT 10SM CLR M03/M07 A3027 RMK AO2 SLP251 T10281067 11006 21033 55003
cycle: 12

Station Type Date Time Source
KBFM TAF 2022/01/23 12:24 UTC NOAA

TAF KBFM 231121Z 2312/2412 31007KT P6SM SKC
FM232000 30007KT P6SM SKC
FM232300 27005KT P6SM FEW250
FM240200 VRB03KT P6SM FEW250

Example: see airport list